Time;durP1;ratioP1;P1;durP2;ratioP2;P2;SDS_P1;SDS_P2;PMS_P1;PMS_P2;Temp;Humidity;BMP_temperature;BMP_pressure;BME280_temperature;BME280_humidity;BME280_pressure;Samples;Min_cycle;Max_cycle;Signal;HPM_P1;HPM_P2
2021/12/14 00:01:21;;;;;;;13.73;7.07;;;-1.10;79.40;;;-1.69;99.99;100224.31;4984416;28;119581;-85
2021/12/14 00:04:00;;;;;;;13.18;7.25;;;-1.10;80.00;;;-1.71;99.63;100225.59;4996783;28;118710;-85
2021/12/14 00:06:30;;;;;;;11.70;7.07;;;-1.20;79.70;;;-1.52;99.30;100229.16;4982286;28;130315;-84
2021/12/14 00:09:01;;;;;;;14.30;7.53;;;-1.10;80.40;;;-1.50;98.50;100217.25;4979804;28;128954;-84
2021/12/14 00:11:49;;;;;;;17.33;7.82;;;-1.10;79.60;;;-1.49;97.99;100224.22;4969142;28;119564;-83
2021/12/14 00:17:15;;;;;;;11.75;6.22;;;-1.20;81.80;;;-1.74;99.33;100226.81;4993724;28;128764;-83
2021/12/14 00:19:47;;;;;;;12.80;6.95;;;-1.20;79.90;;;-1.74;99.75;100223.34;4998985;28;129544;-84
2021/12/14 00:22:27;;;;;;;14.93;7.95;;;-1.20;80.90;;;-1.69;99.50;100226.97;4986862;28;119556;-83
2021/12/14 00:24:56;;;;;;;13.25;7.10;;;-1.20;79.60;;;-1.63;99.18;100233.31;4980593;28;119541;-83
2021/12/14 00:27:35;;;;;;;13.35;7.72;;;-1.20;80.10;;;-1.65;98.85;100235.38;4995401;28;129307;-82
2021/12/14 00:30:08;;;;;;;15.88;7.78;;;-1.20;80.60;;;-1.59;99.28;100231.03;5004057;28;128515;-83
2021/12/14 00:32:38;;;;;;;13.30;7.00;;;-1.20;82.40;;;-1.67;98.77;100227.59;4988216;28;121299;-83
2021/12/14 00:35:13;;;;;;;13.55;7.28;;;-1.30;79.90;;;-1.56;98.10;100231.41;4987076;28;122052;-84
2021/12/14 00:37:46;;;;;;;13.38;7.32;;;-1.20;80.40;;;-1.69;98.85;100234.16;4987446;28;129710;-84
2021/12/14 00:40:22;;;;;;;14.15;7.03;;;-1.30;81.50;;;-1.81;99.09;100226.84;4999746;28;129624;-85
2021/12/14 00:42:55;;;;;;;12.40;6.90;;;-1.30;80.30;;;-1.71;98.64;100231.72;4989767;28;119577;-85
2021/12/14 00:45:31;;;;;;;13.73;7.00;;;-1.30;79.30;;;-1.71;98.01;100236.22;5007240;28;119827;-84
2021/12/14 00:48:01;;;;;;;11.98;7.50;;;-1.30;76.60;;;-1.63;98.09;100228.00;4986450;28;129533;-83
2021/12/14 00:50:33;;;;;;;12.77;7.30;;;-1.30;76.70;;;-1.38;97.28;100240.56;4987077;28;129278;-83
2021/12/14 00:53:03;;;;;;;11.63;6.57;;;-1.20;77.00;;;-1.52;96.88;100240.63;5005686;28;119641;-85
2021/12/14 00:55:39;;;;;;;12.70;7.32;;;-1.20;75.00;;;-1.38;96.32;100248.53;5015580;28;120030;-84
2021/12/14 00:58:18;;;;;;;15.30;8.60;;;-1.30;74.90;;;-1.32;95.85;100245.03;4982930;28;129807;-84
2021/12/14 01:00:53;;;;;;;17.83;10.23;;;-1.20;75.60;;;-1.61;97.37;100247.22;4976953;28;130027;-84
2021/12/14 01:03:28;;;;;;;15.43;7.45;;;-1.30;76.10;;;-1.61;97.54;100238.44;4986368;28;118912;-84
2021/12/14 01:06:00;;;;;;;22.85;12.30;;;-1.30;76.70;;;-1.66;98.13;100244.38;5019799;28;119408;-84
2021/12/14 01:08:39;;;;;;;17.40;9.07;;;-1.30;78.40;;;-1.73;97.94;100238.28;4998691;28;130386;-84
2021/12/14 01:11:15;;;;;;;12.27;7.03;;;-1.30;77.10;;;-1.80;97.70;100238.31;4973513;28;129085;-83
2021/12/14 01:13:55;;;;;;;20.23;11.75;;;-1.40;75.90;;;-1.95;98.61;100235.91;4969351;28;119772;-82
2021/12/14 01:16:34;;;;;;;16.05;8.57;;;-1.40;76.70;;;-1.90;98.07;100228.13;4993485;28;118932;-84
2021/12/14 01:22:14;;;;;;;11.95;6.90;;;-1.50;75.40;;;-1.89;98.28;100234.25;4986077;28;129148;-85
2021/12/14 01:25:02;;;;;;;14.18;7.20;;;-1.50;77.10;;;-2.05;99.09;100239.00;4977840;28;120773;-84
2021/12/14 01:27:36;;;;;;;;;;;-1.50;78.20;;;-2.24;99.01;100226.63;4993774;28;122330;-83
2021/12/14 01:30:15;;;;;;;12.07;5.70;;;-1.60;76.20;;;-2.20;99.03;100233.97;4969936;28;129697;-83
2021/12/14 01:32:47;;;;;;;10.30;6.25;;;-1.60;76.40;;;-2.25;98.91;100236.41;4980563;28;129664;-83
2021/12/14 01:35:23;;;;;;;12.13;6.60;;;-1.70;75.80;;;-2.09;98.74;100231.66;5009929;28;119032;-83
2021/12/14 01:38:15;;;;;;;14.00;8.07;;;-1.60;77.70;;;-2.10;99.54;100227.34;4979551;28;119175;-84
2021/12/14 01:41:01;;;;;;;13.10;7.32;;;-1.60;80.20;;;-2.30;100.00;100217.63;4993201;28;129383;-84
2021/12/14 01:43:43;;;;;;;12.38;6.93;;;-1.60;81.70;;;-2.23;100.00;100218.44;4973962;28;128600;-84
2021/12/14 01:46:24;;;;;;;10.82;5.72;;;-1.60;80.10;;;-2.14;98.81;100215.53;4968515;28;118744;-85
2021/12/14 01:49:06;;;;;;;11.15;5.85;;;-1.60;76.80;;;-2.23;98.31;100214.94;4982225;28;119394;-84
2021/12/14 01:52:05;;;;;;;10.98;6.22;;;-1.60;73.00;;;-2.10;97.29;100211.41;4999576;28;128857;-84
2021/12/14 01:54:43;;;;;;;11.75;6.43;;;-1.60;71.10;;;-1.87;96.92;100209.06;5009762;28;129403;-86
2021/12/14 01:57:18;;;;;;;11.95;5.38;;;-1.60;71.80;;;-1.90;96.79;100206.84;4995268;28;119578;-86
2021/12/14 01:59:54;;;;;;;9.98;5.53;;;-1.60;71.10;;;-1.95;97.04;100203.97;4993194;28;118829;-85
2021/12/14 02:02:31;;;;;;;10.75;6.07;;;-1.60;70.50;;;-1.89;96.61;100208.44;4977350;28;128924;-85
2021/12/14 02:05:07;;;;;;;9.55;5.57;;;-1.50;71.80;;;-2.11;97.21;100201.81;5004216;28;127944;-84
2021/12/14 02:07:37;;;;;;;11.38;6.00;;;-1.60;71.00;;;-1.78;96.96;100206.16;4988167;28;119310;-84
2021/12/14 02:10:14;;;;;;;11.68;5.75;;;-1.60;73.20;;;-1.97;96.96;100211.38;5007826;28;119110;-84
2021/12/14 02:12:45;;;;;;;10.43;5.38;;;-1.60;72.50;;;-1.83;96.89;100212.94;4972708;28;129380;-83
2021/12/14 02:15:20;;;;;;;10.75;5.30;;;-1.50;73.70;;;-1.99;97.13;100218.75;4988670;28;128522;-85
2021/12/14 02:17:52;;;;;;;11.23;5.95;;;-1.60;71.20;;;-1.88;97.13;100218.06;4993640;28;121840;-83
2021/12/14 02:20:29;;;;;;;12.60;6.40;;;-1.60;72.50;;;-1.74;96.17;100215.38;4987569;28;121954;-86
2021/12/14 02:23:01;;;;;;;11.50;6.05;;;-1.50;72.40;;;-1.64;95.95;100205.88;5000065;28;129912;-86
2021/12/14 02:25:30;;;;;;;11.48;6.07;;;-1.50;73.40;;;-1.76;95.69;100212.91;5014524;28;129992;-85
2021/12/14 02:28:07;;;;;;;11.65;6.38;;;-1.50;70.80;;;-2.04;96.68;100205.25;5001706;28;117934;-85
2021/12/14 02:30:38;;;;;;;10.35;6.55;;;-1.60;71.00;;;-1.95;97.86;100203.97;4982280;28;118949;-84
2021/12/14 02:33:15;;;;;;;10.23;5.40;;;-1.60;73.40;;;-2.01;97.54;100199.50;4999569;28;129926;-85
2021/12/14 02:35:47;;;;;;;11.85;5.97;;;-1.60;74.50;;;-1.96;97.77;100207.69;5010229;28;128787;-87
2021/12/14 02:38:19;;;;;;;10.38;6.00;;;-1.50;76.10;;;-2.04;97.75;100206.06;4993196;28;119579;-85
2021/12/14 02:40:57;;;;;;;11.63;5.85;;;-1.60;73.40;;;-1.93;97.53;100211.75;4966068;28;119211;-86
2021/12/14 02:43:49;;;;;;;9.40;5.47;;;-1.60;73.40;;;-1.82;96.72;100213.75;4988224;28;129722;-86
2021/12/14 02:46:27;;;;;;;11.10;5.25;;;-1.60;73.90;;;-1.64;96.09;100221.03;4993024;28;129192;-85
2021/12/14 02:49:01;;;;;;;12.48;5.85;;;-1.60;74.70;;;-1.87;96.53;100227.69;4995785;28;120355;-85
2021/12/14 02:51:40;;;;;;;9.75;5.90;;;-1.60;73.70;;;-1.59;95.86;100218.56;4987945;28;119990;-86
2021/12/14 02:54:14;;;;;;;11.48;5.47;;;-1.50;74.40;;;-1.68;95.92;100211.84;4985219;28;129865;-87
2021/12/14 02:56:48;;;;;;;12.30;5.97;;;-1.50;73.40;;;-1.92;95.75;100219.50;4962158;28;129298;-87
2021/12/14 02:59:23;;;;;;;9.70;5.50;;;-1.60;71.10;;;-1.81;95.76;100208.22;5000798;28;119632;-87
2021/12/14 03:01:54;;;;;;;12.50;5.78;;;-1.60;71.00;;;-1.94;96.84;100210.13;4978735;28;118663;-86
2021/12/14 03:04:23;;;;;;;12.30;5.75;;;-1.60;71.50;;;-1.81;96.37;100218.88;4979275;28;127786;-86
2021/12/14 03:06:58;;;;;;;12.90;6.10;;;-1.60;72.50;;;-1.93;95.76;100217.06;4992311;28;130212;-85
2021/12/14 03:09:39;;;;;;;11.75;5.68;;;-1.60;71.70;;;-1.91;95.96;100212.38;4989619;28;121210;-82
2021/12/14 03:12:14;;;;;;;12.18;6.00;;;-1.60;72.00;;;-1.86;96.08;100223.19;5022404;28;121101;-85
2021/12/14 03:14:53;;;;;;;11.73;6.18;;;-1.60;71.40;;;-1.94;96.24;100216.25;5001219;28;129103;-85
2021/12/14 03:17:22;;;;;;;14.88;6.88;;;-1.60;71.40;;;-1.92;96.31;100216.84;4985164;28;128822;-85
2021/12/14 03:19:57;;;;;;;12.38;6.70;;;-1.60;72.90;;;-1.97;96.41;100216.69;4999692;28;119756;-86
2021/12/14 03:22:33;;;;;;;11.80;6.10;;;-1.60;72.40;;;-2.11;96.80;100205.28;4978702;28;119007;-86
2021/12/14 03:25:06;;;;;;;10.50;5.40;;;-1.70;71.20;;;-1.97;96.49;100205.22;4999829;28;128986;-83
2021/12/14 03:27:38;;;;;;;12.77;5.88;;;-1.70;72.60;;;-2.24;97.67;100200.81;4983435;28;128799;-86
2021/12/14 03:30:20;;;;;;;12.68;7.07;;;-1.70;72.30;;;-2.40;99.32;100201.28;4981921;28;118483;-86
2021/12/14 03:32:49;;;;;;;10.52;5.85;;;-1.70;76.20;;;-2.35;99.59;100198.81;4981376;28;118703;-85
2021/12/14 03:35:19;;;;;;;11.77;6.45;;;-1.70;76.70;;;-2.11;99.04;100199.16;4986405;28;129832;-84
2021/12/14 03:37:50;;;;;;;9.90;5.95;;;-1.70;78.60;;;-2.15;99.04;100203.25;5030261;28;130366;-88
2021/12/14 03:40:21;;;;;;;13.15;6.38;;;-1.60;77.30;;;-2.13;98.90;100202.03;4986684;28;118019;-88
2021/12/14 03:42:50;;;;;;;12.15;6.40;;;-1.60;77.00;;;-1.91;98.53;100199.06;4991553;28;118858;-89
2021/12/14 03:45:23;;;;;;;11.48;6.10;;;-1.60;77.60;;;-1.99;97.28;100192.94;4987795;28;129180;-88
2021/12/14 03:47:56;;;;;;;11.50;6.38;;;-1.60;75.30;;;-1.83;96.79;100191.63;4984599;28;129760;-87
2021/12/14 03:50:35;;;;;;;11.32;5.90;;;-1.60;75.40;;;-2.12;97.41;100192.19;4977878;28;120064;-88
2021/12/14 03:53:05;;;;;;;13.18;6.35;;;-1.60;74.50;;;-2.12;97.40;100192.19;4981962;28;119776;-88
2021/12/14 03:55:39;;;;;;;11.73;6.93;;;-1.60;72.90;;;-2.00;97.72;100191.31;4966982;28;128553;-84
2021/12/14 03:58:12;;;;;;;10.32;5.55;;;-1.60;74.20;;;-1.87;97.02;100195.78;4962371;28;129180;-87
2021/12/14 04:00:48;;;;;;;10.93;5.65;;;-1.60;73.20;;;-2.09;97.10;100186.44;4966665;28;121425;-88
2021/12/14 04:03:27;;;;;;;12.05;6.20;;;-1.70;70.60;;;-1.97;96.15;100194.59;4982562;28;121327;-88
2021/12/14 04:06:13;;;;;;;11.50;5.97;;;-1.70;70.80;;;-2.17;97.37;100191.00;4968038;28;129308;-87
2021/12/14 04:08:43;;;;;;;13.57;7.55;;;-1.70;71.90;;;-1.91;96.89;100188.44;4983491;28;128604;-87
2021/12/14 04:11:16;;;;;;;12.23;6.80;;;-1.70;72.70;;;-2.00;96.41;100187.84;4966620;28;118889;-88
2021/12/14 04:13:49;;;;;;;11.13;5.63;;;-1.70;72.20;;;-2.05;96.73;100188.47;4961640;28;118723;-85
2021/12/14 04:16:28;;;;;;;10.50;6.55;;;-1.70;71.50;;;-1.89;96.15;100187.16;4964522;28;128734;-86
2021/12/14 04:19:04;;;;;;;11.57;6.25;;;-1.60;71.40;;;-1.81;95.70;100189.59;4968288;28;129140;-86
2021/12/14 04:21:35;;;;;;;10.73;6.10;;;-1.60;71.50;;;-1.71;95.26;100196.31;4952102;28;119577;-87
2021/12/14 04:24:05;;;;;;;12.43;5.95;;;-1.60;71.70;;;-1.79;95.28;100197.38;4966384;28;117985;-85
2021/12/14 04:26:43;;;;;;;12.35;6.25;;;-1.60;71.60;;;-1.55;95.30;100198.44;4966780;28;128812;-86
2021/12/14 04:29:13;;;;;;;12.05;7.03;;;-1.60;71.80;;;-1.56;94.66;100202.13;4954327;28;129314;-83
2021/12/14 04:31:44;;;;;;;11.75;5.95;;;-1.50;71.30;;;-1.50;94.55;100203.13;4967079;28;118952;-82
2021/12/14 04:34:17;;;;;;;12.98;6.20;;;-1.50;72.20;;;-1.69;94.68;100208.34;4980263;28;119901;-83
2021/12/14 04:36:50;;;;;;;10.77;6.35;;;-1.60;70.10;;;-1.53;94.57;100207.03;4966278;28;129831;-82
2021/12/14 04:39:39;;;;;;;12.48;6.35;;;-1.60;71.10;;;-1.48;94.30;100207.22;4950098;28;128978;-80
2021/12/14 04:51:58;;;;;;;12.38;6.03;;;-1.60;73.40;;;-1.82;96.80;100195.94;4925072;28;128554;-83
2021/12/14 04:54:32;;;;;;;15.02;7.10;;;-1.60;74.60;;;-1.70;95.91;100193.44;4995257;28;121786;-83
2021/12/14 04:57:01;;;;;;;12.98;6.70;;;-1.60;74.70;;;-1.69;96.23;100186.25;4966802;28;121088;-82
2021/12/14 04:59:36;;;;;;;13.55;7.38;;;-1.60;75.10;;;-1.92;96.76;100187.59;4960101;28;129432;-85
2021/12/14 05:02:13;;;;;;;14.73;7.53;;;-1.60;74.30;;;-1.79;96.76;100188.56;4930161;28;128668;-81
2021/12/14 05:05:01;;;;;;;16.95;8.88;;;-1.60;75.50;;;-1.51;95.86;100194.34;4977026;28;120155;-79
2021/12/14 05:07:47;;;;;;;13.93;7.32;;;-1.50;76.30;;;-1.26;95.20;100185.56;4947081;28;119022;-83
2021/12/14 05:10:20;;;;;;;13.60;7.47;;;-1.40;77.10;;;-1.15;94.03;100187.53;4943100;28;130358;-82
2021/12/14 05:12:51;;;;;;;17.75;8.27;;;-1.40;77.10;;;-1.03;93.88;100192.13;4962643;28;129932;-82
2021/12/14 05:15:25;;;;;;;19.13;12.23;;;-1.40;77.10;;;-0.99;93.30;100196.00;4959566;28;119451;-82
2021/12/14 05:17:59;;;;;;;19.98;9.43;;;-1.30;77.00;;;-0.94;92.76;100196.16;4958593;28;119777;-84
2021/12/14 05:20:28;;;;;;;30.35;16.50;;;-1.30;75.50;;;-0.90;92.60;100200.03;4944475;28;129561;-82
2021/12/14 05:23:01;;;;;;;21.27;11.07;;;-1.30;75.10;;;-0.99;92.74;100196.00;4943113;28;129651;-82
2021/12/14 05:25:30;;;;;;;24.45;14.55;;;-1.30;75.00;;;-1.12;93.42;100197.75;4963060;28;119582;-82
2021/12/14 05:28:14;;;;;;;16.08;9.48;;;-1.40;73.90;;;-1.28;93.29;100192.94;4944852;28;119232;-82
2021/12/14 05:30:50;;;;;;;15.27;8.82;;;-1.30;71.70;;;-1.47;94.39;100195.53;4947690;28;129578;-82
2021/12/14 05:33:41;;;;;;;16.30;8.32;;;-1.40;73.20;;;-1.32;94.49;100200.56;4948559;28;129841;-83
2021/12/14 05:36:35;;;;;;;16.13;8.77;;;-1.40;73.80;;;-1.33;94.23;100201.56;4959539;28;119055;-84
2021/12/14 05:39:06;;;;;;;16.02;8.02;;;-1.40;73.30;;;-1.06;93.22;100197.91;4965311;28;119174;-84
2021/12/14 05:44:56;;;;;;;14.57;8.00;;;-1.30;73.30;;;-1.23;93.82;100192.28;4948520;28;128788;-84
2021/12/14 05:47:31;;;;;;;14.82;7.80;;;-1.40;72.30;;;-1.13;93.05;100196.09;4945416;28;122076;-86
2021/12/14 05:50:09;;;;;;;14.70;8.63;;;-1.40;72.30;;;-1.00;92.79;100199.69;4959051;28;121699;-83
2021/12/14 05:52:38;;;;;;;16.63;8.15;;;-1.40;72.60;;;-1.28;93.67;100200.94;4968275;28;129788;-82
2021/12/14 05:55:33;;;;;;;13.48;7.35;;;-1.40;71.40;;;-1.52;93.86;100208.66;4982164;28;130063;-82
2021/12/14 05:58:04;;;;;;;14.65;7.90;;;-1.50;69.60;;;-1.60;94.18;100200.13;4985150;28;119360;-83
2021/12/14 06:00:35;;;;;;;13.77;7.90;;;-1.50;68.90;;;-1.64;94.70;100202.38;4968545;28;119608;-83
2021/12/14 06:03:18;;;;;;;14.73;8.48;;;-1.60;69.80;;;-1.77;95.23;100202.47;4964076;28;129799;-82
2021/12/14 06:05:48;;;;;;;22.63;10.70;;;-1.50;70.20;;;-1.59;94.56;100209.75;4980971;28;129992;-82
2021/12/14 06:08:36;;;;;;;23.50;13.20;;;-1.50;70.10;;;-1.37;94.04;100220.84;4967391;28;118559;-82
2021/12/14 06:11:24;;;;;;;16.30;8.73;;;-1.50;71.90;;;-1.31;93.61;100214.69;4967163;28;118985;-82
2021/12/14 06:13:53;;;;;;;15.30;9.13;;;-1.40;71.60;;;-1.16;93.31;100209.84;4962286;28;130764;-81
2021/12/14 06:16:27;;;;;;;13.52;7.75;;;-1.40;72.20;;;-1.06;92.70;100213.88;4950317;28;128947;-82
2021/12/14 06:19:17;;;;;;;20.50;10.00;;;-1.40;72.30;;;-1.30;93.22;100208.31;4980552;28;119249;-81
2021/12/14 06:21:55;;;;;;;21.73;11.80;;;-1.40;71.00;;;-1.22;93.36;100207.25;4952142;28;119084;-82
2021/12/14 06:24:26;;;;;;;;;;;-1.40;71.10;;;-1.20;93.04;100206.00;4964317;28;129961;-82
2021/12/14 06:26:57;;;;;;;17.60;8.32;;;-1.40;71.40;;;-1.28;93.15;100207.09;4980742;28;129784;-83
2021/12/14 06:29:31;;;;;;;16.50;9.13;;;-1.40;69.60;;;-1.09;92.66;100202.63;4964643;28;120165;-82
2021/12/14 06:32:09;;;;;;;15.13;8.05;;;-1.30;70.30;;;-1.21;92.38;100204.38;4980961;28;119283;-82
2021/12/14 06:34:44;;;;;;;14.10;7.43;;;-1.40;68.70;;;-1.29;92.71;100212.63;4964251;28;129775;-82
2021/12/14 06:38:22;;;;;;;14.32;8.05;;;-1.40;67.80;;;-1.20;92.27;100206.00;4950326;28;128668;-82
2021/12/14 06:41:04;;;;;;;21.25;7.30;;;-1.30;68.90;;;-1.47;92.71;100205.38;4946893;28;122021;-82
2021/12/14 06:43:37;;;;;;;11.82;6.88;;;-1.40;65.50;;;-1.81;93.95;100210.88;4966268;28;121088;-81
2021/12/14 06:46:12;;;;;;;15.20;7.85;;;-1.50;64.40;;;-1.82;93.62;100214.56;4967118;28;129776;-81
2021/12/14 06:48:44;;;;;;;15.10;7.88;;;-1.50;63.90;;;-1.93;94.68;100217.91;4981002;28;129873;-82
2021/12/14 06:51:20;;;;;;;15.80;8.13;;;-1.60;66.60;;;-1.87;95.30;100214.41;4966835;28;119289;-82
2021/12/14 06:54:03;;;;;;;15.65;8.57;;;-1.60;67.30;;;-1.65;94.20;100224.75;4963266;28;119869;-81
2021/12/14 06:57:05;;;;;;;12.35;7.28;;;-1.60;67.40;;;-1.66;93.92;100218.56;4947027;28;129966;-81
2021/12/14 06:59:47;;;;;;;15.48;7.95;;;-1.60;68.70;;;-1.61;93.90;100225.91;4963424;28;129713;-80
2021/12/14 07:02:25;;;;;;;;;;;-1.60;68.20;;;-1.75;94.06;100225.16;4983378;28;119404;-81
2021/12/14 07:05:24;;;;;;;;;;;-1.60;67.50;;;-1.69;94.02;100228.84;4954255;28;119082;-81
2021/12/14 07:08:08;;;;;;;13.13;7.47;;;-1.50;68.00;;;-1.90;94.25;100222.81;4963417;28;129961;-84
2021/12/14 07:10:37;;;;;;;19.83;11.82;;;-1.60;64.80;;;-1.75;94.67;100227.03;4964181;28;130188;-81
2021/12/14 07:13:15;;;;;;;18.50;9.88;;;-1.60;66.90;;;-1.58;93.88;100222.03;4964670;28;120048;-81
2021/12/14 07:15:44;;;;;;;15.77;8.57;;;-1.50;66.50;;;-2.00;94.55;100225.09;4964956;28;119549;-82
2021/12/14 07:18:13;;;;;;;15.75;8.63;;;-1.60;62.90;;;-1.63;94.31;100217.34;4965882;28;129043;-82
2021/12/14 07:20:46;;;;;;;15.30;8.23;;;-1.50;65.10;;;-1.66;93.53;100213.25;4964140;28;129772;-81
2021/12/14 07:23:28;;;;;;;18.50;9.68;;;-1.50;63.60;;;-1.71;94.04;100214.94;4967357;28;119361;-81
2021/12/14 07:26:01;;;;;;;15.00;8.75;;;-1.50;64.50;;;-1.50;93.56;100221.75;4981041;28;119873;-82
2021/12/14 07:28:36;;;;;;;17.05;9.95;;;-1.40;65.30;;;-1.64;93.64;100218.38;4963982;28;129784;-82
2021/12/14 07:31:14;;;;;;;14.90;8.48;;;-1.40;63.40;;;-1.52;93.33;100218.50;4965590;28;128594;-82
2021/12/14 07:33:48;;;;;;;16.60;9.82;;;-1.40;63.50;;;-1.31;92.39;100217.34;4962971;28;122594;-82
2021/12/14 07:36:26;;;;;;;14.43;8.18;;;-1.40;63.90;;;-1.21;91.57;100217.69;4964049;28;121410;-82
2021/12/14 07:39:04;;;;;;;19.10;9.57;;;-1.30;62.30;;;-1.19;91.93;100218.28;4949475;28;129632;-82
2021/12/14 07:41:37;;;;;;;15.50;9.20;;;-1.30;61.70;;;-1.17;91.19;100221.56;4962726;28;129781;-82
2021/12/14 07:44:14;;;;;;;27.53;13.40;;;-1.30;59.80;;;-1.21;91.49;100223.00;4963308;28;118999;-82
2021/12/14 07:46:52;;;;;;;22.58;12.32;;;-1.30;60.50;;;-1.52;92.66;100232.63;4965720;28;119093;-82
2021/12/14 07:49:24;;;;;;;19.23;10.80;;;-1.40;61.10;;;-1.27;92.49;100226.53;4963407;28;130713;-82
2021/12/14 07:51:59;;;;;;;18.60;11.10;;;-1.30;62.90;;;-1.13;91.31;100227.25;4965344;28;129695;-81
2021/12/14 07:54:33;;;;;;;15.57;9.18;;;-1.30;61.40;;;-1.15;91.41;100230.16;4982344;28;119226;-82
2021/12/14 07:57:06;;;;;;;17.52;10.00;;;-1.20;60.60;;;-1.36;92.60;100233.97;4982120;28;119035;-80
2021/12/14 07:59:38;;;;;;;17.88;9.93;;;-1.30;60.90;;;-1.10;92.02;100232.97;4962221;28;129828;-80
2021/12/14 08:02:16;;;;;;;30.35;13.90;;;-1.20;62.20;;;-0.80;91.18;100236.84;4962189;28;130228;-80
2021/12/14 08:04:49;;;;;;;29.60;17.55;;;-1.10;63.30;;;-0.58;89.84;100234.59;4966394;28;119900;-81
2021/12/14 08:07:29;;;;;;;21.25;11.82;;;-1.00;61.60;;;-0.74;89.19;100231.44;4961629;28;119629;-80
2021/12/14 08:10:09;;;;;;;18.83;10.40;;;-1.00;56.90;;;-0.85;89.41;100237.50;4964475;28;130411;-80
2021/12/14 08:12:45;;;;;;;22.58;13.48;;;-1.10;57.20;;;-0.68;89.33;100239.63;4961449;28;130342;-80
2021/12/14 08:15:24;;;;;;;20.33;12.17;;;-1.10;58.20;;;-0.44;88.07;100232.59;4983025;28;118715;-80
2021/12/14 08:18:06;;;;;;;20.33;11.20;;;-1.00;58.70;;;-0.21;87.25;100229.28;4965010;28;120311;-80
2021/12/14 08:20:40;;;;;;;19.00;12.75;;;-0.90;56.80;;;0.02;86.75;100222.44;4963483;28;130280;-80
2021/12/14 08:23:26;;;;;;;24.92;16.17;;;-0.70;56.80;;;0.12;85.43;100223.56;4964275;28;129877;-80
2021/12/14 08:26:15;;;;;;;22.50;13.80;;;-0.60;54.10;;;0.24;85.11;100225.47;4964096;28;121917;-80
2021/12/14 08:28:50;;;;;;;24.75;15.07;;;-0.50;52.70;;;0.34;84.69;100226.59;4964783;28;122454;-80
2021/12/14 08:31:50;;;;;;;23.95;13.05;;;-0.40;51.60;;;0.32;83.92;100228.63;4965933;28;128901;-80
2021/12/14 08:34:23;;;;;;;20.30;11.32;;;-0.50;49.60;;;0.30;84.08;100225.38;4965880;28;129263;-79
2021/12/14 08:37:00;;;;;;;18.27;11.95;;;-0.50;48.60;;;0.32;83.75;100227.84;4966656;28;118379;-81
2021/12/14 08:39:33;;;;;;;21.40;13.33;;;-0.60;48.60;;;0.31;83.80;100228.88;4959271;28;119614;-80
2021/12/14 08:42:14;;;;;;;20.70;12.00;;;-0.60;48.60;;;0.36;83.44;100229.03;4951191;28;129629;-81
2021/12/14 08:44:53;;;;;;;21.70;12.65;;;-0.50;48.30;;;0.51;83.42;100220.59;4972638;28;129821;-80
2021/12/14 08:47:29;;;;;;;19.45;12.25;;;-0.50;48.00;;;0.60;82.45;100224.56;4973550;28;118436;-81
2021/12/14 08:50:01;;;;;;;21.27;12.73;;;-0.30;47.80;;;0.74;81.82;100224.38;4973500;28;119637;-80
2021/12/14 08:52:31;;;;;;;21.05;12.60;;;-0.30;46.40;;;0.66;82.04;100223.66;4961386;28;129062;-81
2021/12/14 08:55:01;;;;;;;22.80;13.80;;;-0.30;43.30;;;0.56;82.22;100212.69;4951066;28;130212;-80
2021/12/14 08:57:33;;;;;;;22.42;12.88;;;-0.30;44.20;;;0.62;81.83;100211.78;4973851;28;119068;-80
2021/12/14 09:00:12;;;;;;;22.23;13.30;;;-0.30;44.10;;;0.68;81.67;100210.88;4976225;28;118960;-79
2021/12/14 09:02:45;;;;;;;20.63;13.18;;;-0.30;44.60;;;0.84;82.00;100213.94;4966744;28;130425;-81
2021/12/14 09:05:18;;;;;;;26.48;15.68;;;-0.20;44.80;;;0.74;81.58;100213.69;4993164;28;129487;-80
2021/12/14 09:07:47;;;;;;;28.50;15.40;;;-0.30;44.10;;;0.77;81.95;100218.59;4989703;28;118682;-81
2021/12/14 09:10:21;;;;;;;25.45;14.50;;;-0.40;44.60;;;0.73;81.71;100228.09;4984815;28;119362;-81
2021/12/14 09:13:01;;;;;;;30.23;14.30;;;-0.40;45.30;;;0.83;81.27;100223.81;4963806;28;129812;-81
2021/12/14 09:15:39;;;;;;;24.60;14.48;;;-0.20;44.90;;;0.69;81.42;100217.84;4962666;28;129610;-81
2021/12/14 09:18:08;;;;;;;;;;;-0.10;41.70;;;0.51;82.04;100216.06;4963457;28;121940;-81
2021/12/14 09:20:43;;;;;;;22.50;13.15;;;-0.10;41.40;;;0.45;82.57;100216.16;4968189;28;122199;-81
2021/12/14 09:23:18;;;;;;;23.48;12.18;;;-0.20;43.00;;;0.71;82.31;100205.06;4983613;28;129146;-81
2021/12/14 09:25:47;;;;;;;21.95;13.38;;;-0.20;44.80;;;0.56;82.76;100207.34;4968055;28;129494;-81
2021/12/14 09:28:18;;;;;;;22.77;12.25;;;-0.20;41.60;;;0.29;83.17;100201.59;4969051;28;119047;-81
2021/12/14 09:30:51;;;;;;;75.57;37.20;;;-0.30;41.30;;;0.46;82.66;100207.09;4965289;28;119738;-80
2021/12/14 09:33:20;;;;;;;58.35;30.20;;;-0.30;42.50;;;0.54;82.84;100188.06;4967039;28;128990;-81
2021/12/14 09:35:50;;;;;;;26.73;15.25;;;-0.30;44.00;;;0.45;82.50;100189.44;4966568;28;129843;-81
2021/12/14 09:38:35;;;;;;;32.25;19.08;;;-0.30;42.10;;;0.44;82.31;100187.84;4967169;28;119474;-80
2021/12/14 09:41:08;;;;;;;28.33;17.70;;;-0.40;44.00;;;0.01;83.71;100188.81;4967425;28;119798;-81
2021/12/14 09:43:41;;;;;;;28.10;16.10;;;-0.40;41.60;;;0.14;84.43;100183.28;4965863;28;130113;-81
2021/12/14 09:46:20;;;;;;;29.50;17.77;;;-0.40;44.50;;;0.48;83.55;100176.47;4985042;28;128369;-80
2021/12/14 09:48:58;;;;;;;28.08;17.00;;;-0.20;45.10;;;0.77;82.01;100170.50;4967284;28;119849;-80
2021/12/14 09:51:31;;;;;;;31.25;20.08;;;-0.10;43.70;;;1.07;81.88;100171.19;4969790;28;119400;-80
2021/12/14 09:54:05;;;;;;;31.27;18.98;;;0.20;43.80;;;1.24;81.14;100163.28;4968708;28;129645;-80
2021/12/14 09:56:40;;;;;;;31.20;19.13;;;0.30;41.50;;;1.36;79.99;100163.28;4966379;28;130230;-80
2021/12/14 09:59:11;;;;;;;31.38;18.05;;;0.40;40.80;;;0.94;80.92;100162.59;4968887;28;119154;-81
2021/12/14 10:02:08;;;;;;;34.22;19.15;;;0.10;37.10;;;0.63;81.34;100162.66;4967406;28;119610;-80
2021/12/14 10:04:42;;;;;;;29.02;17.23;;;0.00;38.00;;;0.82;81.33;100157.25;4966491;28;130237;-80
2021/12/14 10:07:11;;;;;;;20.88;12.15;;;0.00;39.90;;;1.05;80.82;100157.25;4968584;28;129355;-80
2021/12/14 10:09:45;;;;;;;16.40;10.82;;;0.10;40.70;;;1.05;80.87;100151.91;4965499;28;121647;-80
2021/12/14 10:12:48;;;;;;;15.38;10.18;;;0.20;38.60;;;1.27;79.91;100143.28;4967204;28;121961;-80
2021/12/14 10:15:19;;;;;;;19.13;10.80;;;0.30;38.60;;;1.41;78.67;100141.19;4968434;28;129351;-80
2021/12/14 10:17:50;;;;;;;25.52;11.60;;;0.30;36.90;;;1.11;78.61;100141.31;4968576;28;131553;-80
2021/12/14 10:20:23;;;;;;;18.75;11.10;;;0.30;32.50;;;1.28;79.15;100146.78;4966274;28;119745;-80
2021/12/14 10:22:53;;;;;;;21.90;12.55;;;0.30;35.20;;;1.47;78.58;100139.44;4964758;28;119379;-79
2021/12/14 10:25:26;;;;;;;18.40;11.63;;;0.40;34.30;;;1.62;77.62;100131.72;4964808;28;130100;-80
2021/12/14 10:27:56;;;;;;;18.02;11.32;;;0.50;33.70;;;1.80;77.33;100134.22;4965039;28;129827;-80
2021/12/14 10:30:33;;;;;;;21.17;13.50;;;0.60;33.00;;;1.79;76.97;100145.16;4965421;28;119471;-81
2021/12/14 10:33:03;;;;;;;21.48;12.23;;;0.70;31.40;;;1.91;76.38;100142.47;4966953;28;119333;-80
2021/12/14 10:35:50;;;;;;;19.30;11.55;;;0.70;31.30;;;1.95;75.28;100144.44;4982822;28;128900;-80
2021/12/14 10:38:28;;;;;;;18.08;10.95;;;0.70;30.60;;;1.88;75.07;100142.94;4983247;28;131122;-80
2021/12/14 10:43:47;;;;;;;18.77;12.18;;;0.70;28.20;;;1.92;74.33;100144.09;4965803;28;119141;-81
2021/12/14 10:46:23;;;;;;;18.30;11.60;;;0.70;27.30;;;2.03;74.59;100134.41;4965707;28;129685;-81
2021/12/14 10:48:53;;;;;;;20.43;11.47;;;0.80;27.60;;;1.98;73.92;100127.09;4966228;28;130136;-78
2021/12/14 10:51:29;;;;;;;30.05;13.40;;;0.80;26.20;;;1.94;74.62;100124.06;4984852;28;118520;-80
2021/12/14 10:54:18;;;;;;;19.65;12.73;;;0.70;26.70;;;1.94;74.86;100120.56;4966708;28;119417;-81
2021/12/14 10:56:53;;;;;;;23.83;15.50;;;0.70;28.00;;;2.01;74.55;100121.25;4965250;28;129742;-81
2021/12/14 10:59:26;;;;;;;25.88;14.35;;;0.80;28.50;;;2.03;74.63;100124.50;4967761;28;130266;-81